sensor_id;sensor_type;location;lat;lon;timestamp;pressure;altitude;pressure_sealevel;temperature;humidity
55466;BME280;41329;41.594;23.810;2023-04-16T00:00:25;94813.81;;;12.06;54.78
55466;BME280;41329;41.594;23.810;2023-04-16T00:02:52;94815.78;;;12.02;55.10
55466;BME280;41329;41.594;23.810;2023-04-16T00:05:17;94826.91;;;12.13;54.95
55466;BME280;41329;41.594;23.810;2023-04-16T00:07:43;94807.09;;;12.00;55.21
55466;BME280;41329;41.594;23.810;2023-04-16T00:10:08;94817.38;;;12.10;55.29
55466;BME280;41329;41.594;23.810;2023-04-16T00:12:34;94828.09;;;12.15;55.22
55466;BME280;41329;41.594;23.810;2023-04-16T00:15:00;94807.09;;;12.04;55.46
55466;BME280;41329;41.594;23.810;2023-04-16T00:17:26;94830.06;;;12.04;55.40
55466;BME280;41329;41.594;23.810;2023-04-16T00:19:51;94820.56;;;12.02;55.61
55466;BME280;41329;41.594;23.810;2023-04-16T00:22:17;94815.00;;;12.02;55.95
55466;BME280;41329;41.594;23.810;2023-04-16T00:24:42;94827.69;;;12.03;55.80
55466;BME280;41329;41.594;23.810;2023-04-16T00:27:07;94826.06;;;11.98;56.00
55466;BME280;41329;41.594;23.810;2023-04-16T00:29:33;94835.19;;;11.99;55.96
55466;BME280;41329;41.594;23.810;2023-04-16T00:31:59;94802.69;;;11.85;56.11
55466;BME280;41329;41.594;23.810;2023-04-16T00:34:25;94816.97;;;11.91;56.26
55466;BME280;41329;41.594;23.810;2023-04-16T00:36:50;94810.59;;;11.90;56.18
55466;BME280;41329;41.594;23.810;2023-04-16T00:39:16;94825.69;;;11.93;56.01
55466;BME280;41329;41.594;23.810;2023-04-16T00:41:42;94818.16;;;11.90;56.39
55466;BME280;41329;41.594;23.810;2023-04-16T00:44:07;94818.53;;;11.92;56.06
55466;BME280;41329;41.594;23.810;2023-04-16T00:46:33;94819.69;;;11.84;55.72
55466;BME280;41329;41.594;23.810;2023-04-16T00:48:59;94822.09;;;11.85;55.74
55466;BME280;41329;41.594;23.810;2023-04-16T00:51:26;94768.88;;;11.48;55.51
55466;BME280;41329;41.594;23.810;2023-04-16T00:53:52;94828.44;;;11.82;55.90
55466;BME280;41329;41.594;23.810;2023-04-16T00:56:18;94833.16;;;11.78;56.02
55466;BME280;41329;41.594;23.810;2023-04-16T00:58:43;94820.44;;;11.67;56.03
55466;BME280;41329;41.594;23.810;2023-04-16T01:01:09;94832.34;;;11.71;56.07
55466;BME280;41329;41.594;23.810;2023-04-16T01:03:45;94826.41;;;11.69;56.15
55466;BME280;41329;41.594;23.810;2023-04-16T01:06:11;94826.38;;;11.65;56.09
55466;BME280;41329;41.594;23.810;2023-04-16T01:08:36;94815.22;;;11.55;55.80
55466;BME280;41329;41.594;23.810;2023-04-16T01:11:02;94815.22;;;11.55;56.09
55466;BME280;41329;41.594;23.810;2023-04-16T01:13:28;94799.72;;;11.36;56.27
55466;BME280;41329;41.594;23.810;2023-04-16T01:15:54;94811.97;;;11.32;56.48
55466;BME280;41329;41.594;23.810;2023-04-16T01:18:20;94811.16;;;11.24;56.74
55466;BME280;41329;41.594;23.810;2023-04-16T01:20:47;94816.63;;;11.14;57.13
55466;BME280;41329;41.594;23.810;2023-04-16T01:23:13;94819.41;;;11.14;56.89
55466;BME280;41329;41.594;23.810;2023-04-16T01:25:39;94817.41;;;11.11;56.85
55466;BME280;41329;41.594;23.810;2023-04-16T01:28:05;94820.56;;;11.13;57.35
55466;BME280;41329;41.594;23.810;2023-04-16T01:30:30;94818.97;;;11.12;57.13
55466;BME280;41329;41.594;23.810;2023-04-16T01:32:56;94782.44;;;10.85;57.00
55466;BME280;41329;41.594;23.810;2023-04-16T01:35:23;94801.13;;;10.99;57.06
55466;BME280;41329;41.594;23.810;2023-04-16T01:37:51;94807.09;;;11.08;57.24
55466;BME280;41329;41.594;23.810;2023-04-16T01:40:17;94819.78;;;11.12;56.97
55466;BME280;41329;41.594;23.810;2023-04-16T01:42:42;94818.19;;;11.11;57.25
55466;BME280;41329;41.594;23.810;2023-04-16T01:45:08;94818.19;;;11.11;57.17
55466;BME280;41329;41.594;23.810;2023-04-16T01:47:33;94814.63;;;11.14;57.33
55466;BME280;41329;41.594;23.810;2023-04-16T01:49:59;94808.28;;;11.10;57.36
55466;BME280;41329;41.594;23.810;2023-04-16T01:52:25;94791.66;;;11.03;57.17
55466;BME280;41329;41.594;23.810;2023-04-16T01:54:50;94810.16;;;10.92;57.29
55466;BME280;41329;41.594;23.810;2023-04-16T01:57:16;94822.44;;;10.95;57.28
55466;BME280;41329;41.594;23.810;2023-04-16T01:59:41;94812.19;;;10.99;57.86
55466;BME280;41329;41.594;23.810;2023-04-16T02:02:09;94816.91;;;10.91;57.80
55466;BME280;41329;41.594;23.810;2023-04-16T02:04:44;94800.63;;;10.83;57.93
55466;BME280;41329;41.594;23.810;2023-04-16T02:07:10;94814.81;;;10.78;58.54
55466;BME280;41329;41.594;23.810;2023-04-16T02:09:37;94806.91;;;10.76;58.50
55466;BME280;41329;41.594;23.810;2023-04-16T02:12:03;94807.31;;;10.78;58.90
55466;BME280;41329;41.594;23.810;2023-04-16T02:14:32;94799.41;;;10.77;59.00
55466;BME280;41329;41.594;23.810;2023-04-16T02:16:58;94803.34;;;10.76;58.79
55466;BME280;41329;41.594;23.810;2023-04-16T02:19:24;94801.38;;;10.76;58.66
55466;BME280;41329;41.594;23.810;2023-04-16T02:21:52;94783.91;;;10.65;58.24
55466;BME280;41329;41.594;23.810;2023-04-16T02:24:18;94799.41;;;10.77;58.68
55466;BME280;41329;41.594;23.810;2023-04-16T02:26:44;94779.16;;;10.66;59.19
55466;BME280;41329;41.594;23.810;2023-04-16T02:29:10;94768.53;;;10.68;59.37
55466;BME280;41329;41.594;23.810;2023-04-16T02:31:35;94790.72;;;10.78;59.69
55466;BME280;41329;41.594;23.810;2023-04-16T02:34:02;94768.16;;;10.73;59.56
55466;BME280;41329;41.594;23.810;2023-04-16T02:36:27;94777.66;;;10.75;59.53
55466;BME280;41329;41.594;23.810;2023-04-16T02:38:53;94787.59;;;10.87;59.33
55466;BME280;41329;41.594;23.810;2023-04-16T02:41:18;94786.44;;;10.88;59.27
55466;BME280;41329;41.594;23.810;2023-04-16T02:43:43;94782.44;;;10.85;59.64
55466;BME280;41329;41.594;23.810;2023-04-16T02:46:09;94790.78;;;10.92;59.65
55466;BME280;41329;41.594;23.810;2023-04-16T02:48:35;94792.31;;;10.83;59.77
55466;BME280;41329;41.594;23.810;2023-04-16T02:51:00;94784.31;;;10.71;59.93
55466;BME280;41329;41.594;23.810;2023-04-16T02:53:25;94781.19;;;10.72;59.79
55466;BME280;41329;41.594;23.810;2023-04-16T02:55:54;94788.34;;;10.77;60.27
55466;BME280;41329;41.594;23.810;2023-04-16T02:58:21;94792.31;;;10.79;60.30
55466;BME280;41329;41.594;23.810;2023-04-16T03:00:47;94770.91;;;10.69;60.18
55466;BME280;41329;41.594;23.810;2023-04-16T03:03:13;94792.28;;;10.76;60.04
55466;BME280;41329;41.594;23.810;2023-04-16T03:05:38;94788.28;;;10.70;60.14
55466;BME280;41329;41.594;23.810;2023-04-16T03:08:04;94772.06;;;10.68;60.13
55466;BME280;41329;41.594;23.810;2023-04-16T03:10:30;94777.59;;;10.65;60.35
55466;BME280;41329;41.594;23.810;2023-04-16T03:12:55;94786.69;;;10.69;60.15
55466;BME280;41329;41.594;23.810;2023-04-16T03:15:21;94791.88;;;10.74;60.01
55466;BME280;41329;41.594;23.810;2023-04-16T03:17:46;94799.41;;;10.77;60.29
55466;BME280;41329;41.594;23.810;2023-04-16T03:20:12;94790.28;;;10.76;60.55
55466;BME280;41329;41.594;23.810;2023-04-16T03:22:38;94799.41;;;10.80;60.50
55466;BME280;41329;41.594;23.810;2023-04-16T03:25:05;94801.00;;;10.81;60.32
55466;BME280;41329;41.594;23.810;2023-04-16T03:27:31;94795.06;;;10.79;60.43
55466;BME280;41329;41.594;23.810;2023-04-16T03:29:57;94795.06;;;10.79;60.36
55466;BME280;41329;41.594;23.810;2023-04-16T03:32:22;94770.09;;;10.69;60.38
55466;BME280;41329;41.594;23.810;2023-04-16T03:34:47;94798.66;;;10.83;60.57
55466;BME280;41329;41.594;23.810;2023-04-16T03:37:13;94799.47;;;10.84;60.60
55466;BME280;41329;41.594;23.810;2023-04-16T03:39:38;94791.13;;;10.80;60.16
55466;BME280;41329;41.594;23.810;2023-04-16T03:42:04;94781.56;;;10.71;60.31
55466;BME280;41329;41.594;23.810;2023-04-16T03:44:29;94785.56;;;10.77;60.09
55466;BME280;41329;41.594;23.810;2023-04-16T03:46:55;94793.06;;;10.73;60.24
55466;BME280;41329;41.594;23.810;2023-04-16T03:49:21;94785.50;;;10.66;60.44
55466;BME280;41329;41.594;23.810;2023-04-16T03:51:46;94789.47;;;10.72;60.57
55466;BME280;41329;41.594;23.810;2023-04-16T03:54:12;94786.31;;;10.70;60.75
55466;BME280;41329;41.594;23.810;2023-04-16T03:56:39;94786.34;;;10.74;60.80
55466;BME280;41329;41.594;23.810;2023-04-16T03:59:05;94783.91;;;10.65;60.77
55466;BME280;41329;41.594;23.810;2023-04-16T04:01:30;94773.19;;;10.60;60.65
55466;BME280;41329;41.594;23.810;2023-04-16T04:03:55;94783.13;;;10.65;60.83
55466;BME280;41329;41.594;23.810;2023-04-16T04:06:21;94782.72;;;10.63;61.31
55466;BME280;41329;41.594;23.810;2023-04-16T04:08:46;94786.56;;;10.51;61.55
55466;BME280;41329;41.594;23.810;2023-04-16T04:11:12;94784.97;;;10.47;61.40
55466;BME280;41329;41.594;23.810;2023-04-16T04:13:37;94798.00;;;10.50;61.64
55466;BME280;41329;41.594;23.810;2023-04-16T04:16:03;94782.91;;;10.37;61.13
55466;BME280;41329;41.594;23.810;2023-04-16T04:18:29;94804.78;;;10.52;61.21
55466;BME280;41329;41.594;23.810;2023-04-16T04:20:54;94801.19;;;10.52;61.25
55466;BME280;41329;41.594;23.810;2023-04-16T04:23:20;94803.53;;;10.46;61.35
55466;BME280;41329;41.594;23.810;2023-04-16T04:25:45;94782.41;;;10.21;61.86
55466;BME280;41329;41.594;23.810;2023-04-16T04:28:11;94786.16;;;10.02;62.46
55466;BME280;41329;41.594;23.810;2023-04-16T04:30:36;94805.50;;;10.02;63.13
55466;BME280;41329;41.594;23.810;2023-04-16T04:33:02;94800.59;;;9.85;64.36
55466;BME280;41329;41.594;23.810;2023-04-16T04:35:27;94806.88;;;9.82;64.48
55466;BME280;41329;41.594;23.810;2023-04-16T04:37:53;94805.94;;;9.68;65.33
55466;BME280;41329;41.594;23.810;2023-04-16T04:40:18;94808.50;;;9.50;66.31
55466;BME280;41329;41.594;23.810;2023-04-16T04:42:44;94794.06;;;9.67;66.27
55466;BME280;41329;41.594;23.810;2023-04-16T04:45:09;94768.81;;;9.65;66.00
55466;BME280;41329;41.594;23.810;2023-04-16T04:47:35;94765.72;;;9.74;65.63
55466;BME280;41329;41.594;23.810;2023-04-16T04:50:01;94803.88;;;10.01;65.52
55466;BME280;41329;41.594;23.810;2023-04-16T04:52:26;94802.22;;;9.93;65.71
55466;BME280;41329;41.594;23.810;2023-04-16T04:54:52;94806.44;;;9.80;66.33
55466;BME280;41329;41.594;23.810;2023-04-16T04:57:17;94781.81;;;9.65;66.90
55466;BME280;41329;41.594;23.810;2023-04-16T04:59:42;94801.03;;;9.91;66.63
55466;BME280;41329;41.594;23.810;2023-04-16T05:02:08;94791.25;;;10.00;66.37
55466;BME280;41329;41.594;23.810;2023-04-16T05:04:33;94803.28;;;10.18;66.00
55466;BME280;41329;41.594;23.810;2023-04-16T05:06:59;94789.44;;;10.15;65.36
55466;BME280;41329;41.594;23.810;2023-04-16T05:09:26;94808.53;;;10.30;65.31
55466;BME280;41329;41.594;23.810;2023-04-16T05:11:51;94798.47;;;10.08;65.31
55466;BME280;41329;41.594;23.810;2023-04-16T05:14:17;94814.69;;;10.13;65.27
55466;BME280;41329;41.594;23.810;2023-04-16T05:16:42;94807.69;;;10.23;65.09
55466;BME280;41329;41.594;23.810;2023-04-16T05:19:08;94810.47;;;10.26;65.15
55466;BME280;41329;41.594;23.810;2023-04-16T05:21:33;94813.94;;;10.16;65.51
55466;BME280;41329;41.594;23.810;2023-04-16T05:23:58;94816.81;;;10.27;65.35
55466;BME280;41329;41.594;23.810;2023-04-16T05:26:24;94807.69;;;10.23;65.10
55466;BME280;41329;41.594;23.810;2023-04-16T05:28:50;94818.84;;;10.37;65.16
55466;BME280;41329;41.594;23.810;2023-04-16T05:31:15;94814.16;;;10.41;65.40
55466;BME280;41329;41.594;23.810;2023-04-16T05:33:40;94774.41;;;10.12;64.98
55466;BME280;41329;41.594;23.810;2023-04-16T05:36:06;94811.19;;;10.16;65.39
55466;BME280;41329;41.594;23.810;2023-04-16T05:38:31;94811.66;;;10.29;65.71
55466;BME280;41329;41.594;23.810;2023-04-16T05:40:57;94818.84;;;10.33;65.98
55466;BME280;41329;41.594;23.810;2023-04-16T05:43:22;94813.31;;;10.37;65.42
55466;BME280;41329;41.594;23.810;2023-04-16T05:45:48;94805.28;;;10.18;65.65
55466;BME280;41329;41.594;23.810;2023-04-16T05:48:13;94819.31;;;10.02;66.19
55466;BME280;41329;41.594;23.810;2023-04-16T05:50:39;94817.59;;;9.91;67.40
55466;BME280;41329;41.594;23.810;2023-04-16T05:53:05;94821.34;;;10.05;68.17
55466;BME280;41329;41.594;23.810;2023-04-16T05:55:31;94829.47;;;9.91;66.69
55466;BME280;41329;41.594;23.810;2023-04-16T05:57:57;94818.13;;;10.00;66.90
55466;BME280;41329;41.594;23.810;2023-04-16T06:00:22;94822.69;;;10.22;66.82
55466;BME280;41329;41.594;23.810;2023-04-16T06:02:48;94800.97;;;10.24;65.14
55466;BME280;41329;41.594;23.810;2023-04-16T06:05:14;94809.88;;;10.50;64.20
55466;BME280;41329;41.594;23.810;2023-04-16T06:07:40;94817.44;;;10.60;64.20
55466;BME280;41329;41.594;23.810;2023-04-16T06:10:06;94820.34;;;10.74;63.20
55466;BME280;41329;41.594;23.810;2023-04-16T06:12:31;94814.13;;;10.95;62.93
55466;BME280;41329;41.594;23.810;2023-04-16T06:14:57;94787.31;;;11.06;62.65
55466;BME280;41329;41.594;23.810;2023-04-16T06:17:22;94798.88;;;11.22;61.96
55466;BME280;41329;41.594;23.810;2023-04-16T06:19:48;94806.09;;;11.47;62.04
55466;BME280;41329;41.594;23.810;2023-04-16T06:22:13;94788.00;;;11.71;61.76
55466;BME280;41329;41.594;23.810;2023-04-16T06:24:39;94785.66;;;11.90;60.96
55466;BME280;41329;41.594;23.810;2023-04-16T06:27:04;94780.94;;;12.05;59.28
55466;BME280;41329;41.594;23.810;2023-04-16T06:29:30;94789.28;;;12.22;58.65
55466;BME280;41329;41.594;23.810;2023-04-16T06:31:55;94782.94;;;12.32;57.31
55466;BME280;41329;41.594;23.810;2023-04-16T06:34:21;94778.97;;;12.40;56.75
55466;BME280;41329;41.594;23.810;2023-04-16T06:36:46;94779.78;;;12.52;55.98
55466;BME280;41329;41.594;23.810;2023-04-16T06:39:12;94776.22;;;12.58;55.80
55466;BME280;41329;41.594;23.810;2023-04-16T06:41:37;94782.94;;;12.78;55.71
55466;BME280;41329;41.594;23.810;2023-04-16T06:44:03;94740.91;;;12.66;54.80
55466;BME280;41329;41.594;23.810;2023-04-16T06:46:28;94780.91;;;12.89;53.58
55466;BME280;41329;41.594;23.810;2023-04-16T06:48:54;94778.56;;;12.88;54.09
55466;BME280;41329;41.594;23.810;2023-04-16T06:51:19;94766.22;;;12.96;54.23
55466;BME280;41329;41.594;23.810;2023-04-16T06:53:45;94760.28;;;13.11;54.70
55466;BME280;41329;41.594;23.810;2023-04-16T06:56:10;94765.78;;;13.18;54.34
55466;BME280;41329;41.594;23.810;2023-04-16T06:58:35;94750.34;;;13.14;53.22
55466;BME280;41329;41.594;23.810;2023-04-16T07:01:01;94751.88;;;13.32;54.68
55466;BME280;41329;41.594;23.810;2023-04-16T07:03:27;94762.50;;;13.51;53.68
55466;BME280;41329;41.594;23.810;2023-04-16T07:05:52;94764.44;;;13.65;51.83
55466;BME280;41329;41.594;23.810;2023-04-16T07:08:18;94768.38;;;13.67;51.98
55466;BME280;41329;41.594;23.810;2023-04-16T07:10:43;94764.34;;;13.82;52.49
55466;BME280;41329;41.594;23.810;2023-04-16T07:13:09;94753.94;;;13.93;53.02
55466;BME280;41329;41.594;23.810;2023-04-16T07:15:35;94771.25;;;14.22;53.04
55466;BME280;41329;41.594;23.810;2023-04-16T07:18:00;94769.59;;;14.35;52.65
55466;BME280;41329;41.594;23.810;2023-04-16T07:20:25;94778.66;;;14.42;51.38
55466;BME280;41329;41.594;23.810;2023-04-16T07:22:51;94784.91;;;14.53;50.39
55466;BME280;41329;41.594;23.810;2023-04-16T07:25:16;94759.19;;;14.42;50.11
55466;BME280;41329;41.594;23.810;2023-04-16T07:27:42;94756.38;;;14.46;50.73
55466;BME280;41329;41.594;23.810;2023-04-16T07:30:07;94772.44;;;14.72;50.28
55466;BME280;41329;41.594;23.810;2023-04-16T07:32:33;94768.75;;;14.85;49.43
55466;BME280;41329;41.594;23.810;2023-04-16T07:34:59;94767.50;;;14.46;48.10
55466;BME280;41329;41.594;23.810;2023-04-16T07:37:25;94771.38;;;14.59;48.63
55466;BME280;41329;41.594;23.810;2023-04-16T07:39:51;94762.59;;;14.60;48.63
55466;BME280;41329;41.594;23.810;2023-04-16T07:42:17;94760.63;;;14.57;49.96
55466;BME280;41329;41.594;23.810;2023-04-16T07:44:43;94755.16;;;14.91;50.15
55466;BME280;41329;41.594;23.810;2023-04-16T07:47:08;94752.41;;;15.24;51.30
55466;BME280;41329;41.594;23.810;2023-04-16T07:49:34;94728.69;;;15.46;51.02
55466;BME280;41329;41.594;23.810;2023-04-16T07:51:59;94751.50;;;15.98;48.37
55466;BME280;41329;41.594;23.810;2023-04-16T07:54:25;94742.56;;;16.10;46.31
55466;BME280;41329;41.594;23.810;2023-04-16T07:56:50;94750.16;;;16.09;45.08
55466;BME280;41329;41.594;23.810;2023-04-16T07:59:16;94755.69;;;16.13;44.18
55466;BME280;41329;41.594;23.810;2023-04-16T08:01:41;94751.66;;;15.87;45.25
55466;BME280;41329;41.594;23.810;2023-04-16T08:04:07;94736.66;;;15.48;46.12
55466;BME280;41329;41.594;23.810;2023-04-16T08:06:32;94758.44;;;15.86;46.55
55466;BME280;41329;41.594;23.810;2023-04-16T08:08:58;94743.13;;;15.98;46.42
55466;BME280;41329;41.594;23.810;2023-04-16T08:11:23;94752.63;;;16.04;46.42
55466;BME280;41329;41.594;23.810;2023-04-16T08:13:49;94729.56;;;16.26;47.15
55466;BME280;41329;41.594;23.810;2023-04-16T08:16:14;94738.06;;;16.46;44.44
55466;BME280;41329;41.594;23.810;2023-04-16T08:18:40;94726.38;;;16.24;45.63
55466;BME280;41329;41.594;23.810;2023-04-16T08:21:05;94736.31;;;16.55;47.13
55466;BME280;41329;41.594;23.810;2023-04-16T08:23:31;94733.03;;;16.60;45.96
55466;BME280;41329;41.594;23.810;2023-04-16T08:25:57;94722.09;;;16.69;45.50
55466;BME280;41329;41.594;23.810;2023-04-16T08:28:22;94713.88;;;16.82;44.66
55466;BME280;41329;41.594;23.810;2023-04-16T08:30:48;94717.41;;;16.86;44.27
55466;BME280;41329;41.594;23.810;2023-04-16T08:33:13;94721.53;;;16.78;44.16
55466;BME280;41329;41.594;23.810;2023-04-16T08:35:39;94711.81;;;16.86;44.62
55466;BME280;41329;41.594;23.810;2023-04-16T08:38:05;94720.06;;;16.93;45.37
55466;BME280;41329;41.594;23.810;2023-04-16T08:40:33;94706.78;;;17.20;44.75
55466;BME280;41329;41.594;23.810;2023-04-16T08:43:05;94704.22;;;17.29;43.09
55466;BME280;41329;41.594;23.810;2023-04-16T08:45:35;94718.84;;;17.36;42.76
55466;BME280;41329;41.594;23.810;2023-04-16T08:48:03;94703.34;;;17.32;42.55
55466;BME280;41329;41.594;23.810;2023-04-16T08:50:32;94699.78;;;17.12;42.33
55466;BME280;41329;41.594;23.810;2023-04-16T08:53:03;94702.41;;;17.38;42.15
55466;BME280;41329;41.594;23.810;2023-04-16T08:55:36;94709.75;;;17.32;39.34
55466;BME280;41329;41.594;23.810;2023-04-16T09:00:36;94700.09;;;17.56;41.99
55466;BME280;41329;41.594;23.810;2023-04-16T09:03:02;94682.28;;;17.66;39.02
55466;BME280;41329;41.594;23.810;2023-04-16T09:05:28;94672.31;;;17.65;37.78
55466;BME280;41329;41.594;23.810;2023-04-16T09:07:54;94691.00;;;17.88;39.21
55466;BME280;41329;41.594;23.810;2023-04-16T09:10:20;94686.28;;;17.85;39.84
55466;BME280;41329;41.594;23.810;2023-04-16T09:12:46;94689.38;;;18.23;40.58
55466;BME280;41329;41.594;23.810;2023-04-16T09:15:12;94683.69;;;18.62;40.57
55466;BME280;41329;41.594;23.810;2023-04-16T09:17:38;94670.97;;;18.73;nan
55466;BME280;41329;41.594;23.810;2023-04-16T09:20:05;94667.72;;;18.91;39.22
55466;BME280;41329;41.594;23.810;2023-04-16T09:22:35;94686.91;;;19.21;37.74
55466;BME280;41329;41.594;23.810;2023-04-16T09:25:01;94666.94;;;19.03;35.97
55466;BME280;41329;41.594;23.810;2023-04-16T09:27:27;94678.28;;;18.99;36.12
55466;BME280;41329;41.594;23.810;2023-04-16T09:29:52;94685.66;;;18.77;35.32
55466;BME280;41329;41.594;23.810;2023-04-16T09:32:24;94684.28;;;18.53;34.92
55466;BME280;41329;41.594;23.810;2023-04-16T09:34:57;94677.28;;;18.61;35.77
55466;BME280;41329;41.594;23.810;2023-04-16T09:37:24;94670.53;;;18.59;35.83
55466;BME280;41329;41.594;23.810;2023-04-16T09:40:01;94673.31;;;18.91;38.13
55466;BME280;41329;41.594;23.810;2023-04-16T09:42:31;94653.00;;;18.87;36.58
55466;BME280;41329;41.594;23.810;2023-04-16T09:44:58;94671.28;;;19.36;35.80
55466;BME280;41329;41.594;23.810;2023-04-16T09:47:25;94663.06;;;19.70;37.99
55466;BME280;41329;41.594;23.810;2023-04-16T09:50:02;94660.63;;;19.84;32.56
55466;BME280;41329;41.594;23.810;2023-04-16T09:52:27;94666.22;;;19.72;34.32
55466;BME280;41329;41.594;23.810;2023-04-16T09:54:53;94658.59;;;19.72;34.31
55466;BME280;41329;41.594;23.810;2023-04-16T09:57:20;94646.69;;;19.81;35.60
55466;BME280;41329;41.594;23.810;2023-04-16T09:59:46;94657.69;;;19.75;34.27
55466;BME280;41329;41.594;23.810;2023-04-16T10:02:12;94656.25;;;19.71;33.92
55466;BME280;41329;41.594;23.810;2023-04-16T10:04:50;94641.22;;;19.49;34.42
55466;BME280;41329;41.594;23.810;2023-04-16T10:07:16;94641.91;;;19.40;34.04
55466;BME280;41329;41.594;23.810;2023-04-16T10:09:42;94639.53;;;19.39;34.66
55466;BME280;41329;41.594;23.810;2023-04-16T10:12:08;94642.28;;;19.55;35.64
55466;BME280;41329;41.594;23.810;2023-04-16T10:14:34;94629.38;;;19.57;35.34
55466;BME280;41329;41.594;23.810;2023-04-16T10:17:01;94626.84;;;19.88;35.32
55466;BME280;41329;41.594;23.810;2023-04-16T10:19:27;94627.22;;;20.27;33.73
55466;BME280;41329;41.594;23.810;2023-04-16T10:21:54;94610.03;;;20.13;32.23
55466;BME280;41329;41.594;23.810;2023-04-16T10:24:21;94634.38;;;20.03;32.97
55466;BME280;41329;41.594;23.810;2023-04-16T10:26:48;94626.22;;;19.55;33.74
55466;BME280;41329;41.594;23.810;2023-04-16T10:29:16;94627.06;;;19.27;34.30
55466;BME280;41329;41.594;23.810;2023-04-16T10:31:42;94623.94;;;19.38;33.73
55466;BME280;41329;41.594;23.810;2023-04-16T10:34:08;94617.97;;;19.36;33.50
55466;BME280;41329;41.594;23.810;2023-04-16T10:36:37;94622.25;;;19.40;33.89
55466;BME280;41329;41.594;23.810;2023-04-16T10:39:09;94624.38;;;19.08;34.71
55466;BME280;41329;41.594;23.810;2023-04-16T10:41:35;94621.34;;;19.15;35.15
55466;BME280;41329;41.594;23.810;2023-04-16T10:44:08;94620.78;;;19.36;34.94
55466;BME280;41329;41.594;23.810;2023-04-16T10:49:17;94627.94;;;19.08;34.96
55466;BME280;41329;41.594;23.810;2023-04-16T10:52:06;94629.34;;;18.88;35.71
55466;BME280;41329;41.594;23.810;2023-04-16T10:54:35;94616.75;;;18.64;36.08
55466;BME280;41329;41.594;23.810;2023-04-16T10:57:05;94603.72;;;18.57;35.45
55466;BME280;41329;41.594;23.810;2023-04-16T10:59:31;94613.97;;;18.92;35.07
55466;BME280;41329;41.594;23.810;2023-04-16T11:02:00;94611.19;;;18.92;35.63
55466;BME280;41329;41.594;23.810;2023-04-16T11:04:27;94598.34;;;18.79;34.95
55466;BME280;41329;41.594;23.810;2023-04-16T11:15:08;94614.63;;;18.84;35.83
55466;BME280;41329;41.594;23.810;2023-04-16T11:17:49;94596.19;;;18.54;36.40
55466;BME280;41329;41.594;23.810;2023-04-16T11:22:45;94619.22;;;18.62;36.63
55466;BME280;41329;41.594;23.810;2023-04-16T11:25:11;94604.28;;;18.52;38.12
55466;BME280;41329;41.594;23.810;2023-04-16T11:27:36;94623.16;;;18.64;37.79
55466;BME280;41329;41.594;23.810;2023-04-16T11:30:04;94605.13;;;18.65;37.66
55466;BME280;41329;41.594;23.810;2023-04-16T11:32:31;94611.69;;;18.75;37.55
55466;BME280;41329;41.594;23.810;2023-04-16T11:34:58;94613.63;;;18.62;37.58
55466;BME280;41329;41.594;23.810;2023-04-16T11:37:32;94642.13;;;18.73;39.54
55466;BME280;41329;41.594;23.810;2023-04-16T11:39:58;94631.47;;;18.20;42.91
55466;BME280;41329;41.594;23.810;2023-04-16T11:42:25;94643.25;;;17.43;44.80
55466;BME280;41329;41.594;23.810;2023-04-16T11:44:55;94673.88;;;17.08;46.15
55466;BME280;41329;41.594;23.810;2023-04-16T11:47:22;94676.50;;;16.53;46.94
55466;BME280;41329;41.594;23.810;2023-04-16T11:49:48;94676.94;;;15.75;48.13
55466;BME280;41329;41.594;23.810;2023-04-16T11:52:27;94668.81;;;15.24;49.92
55466;BME280;41329;41.594;23.810;2023-04-16T11:54:53;94688.31;;;14.91;52.08
55466;BME280;41329;41.594;23.810;2023-04-16T11:57:26;94691.13;;;14.50;55.79
55466;BME280;41329;41.594;23.810;2023-04-16T11:59:52;94679.88;;;14.13;56.85
55466;BME280;41329;41.594;23.810;2023-04-16T12:02:42;94691.50;;;14.01;58.70
55466;BME280;41329;41.594;23.810;2023-04-16T12:05:37;94700.66;;;13.98;59.12
55466;BME280;41329;41.594;23.810;2023-04-16T12:08:05;94718.44;;;14.11;60.21
55466;BME280;41329;41.594;23.810;2023-04-16T12:10:32;94706.06;;;14.19;60.69
55466;BME280;41329;41.594;23.810;2023-04-16T12:15:53;94712.53;;;14.53;62.38
55466;BME280;41329;41.594;23.810;2023-04-16T12:18:21;94717.19;;;14.67;61.65
55466;BME280;41329;41.594;23.810;2023-04-16T12:20:47;94716.28;;;14.80;62.00
55466;BME280;41329;41.594;23.810;2023-04-16T12:23:29;94706.16;;;14.97;62.13
55466;BME280;41329;41.594;23.810;2023-04-16T12:25:55;94718.34;;;15.10;61.23
55466;BME280;41329;41.594;23.810;2023-04-16T12:28:32;94714.69;;;15.16;60.80
55466;BME280;41329;41.594;23.810;2023-04-16T12:30:58;94719.19;;;15.40;60.75
55466;BME280;41329;41.594;23.810;2023-04-16T12:33:23;94734.97;;;15.54;60.54
55466;BME280;41329;41.594;23.810;2023-04-16T12:35:49;94732.06;;;15.27;60.33
55466;BME280;41329;41.594;23.810;2023-04-16T12:38:15;94719.09;;;15.14;60.91
55466;BME280;41329;41.594;23.810;2023-04-16T12:40:41;94726.34;;;15.08;62.03
55466;BME280;41329;41.594;23.810;2023-04-16T12:43:06;94737.84;;;15.10;62.54
55466;BME280;41329;41.594;23.810;2023-04-16T12:45:35;94737.88;;;15.06;62.81
55466;BME280;41329;41.594;23.810;2023-04-16T12:48:01;94735.06;;;14.73;62.65
55466;BME280;41329;41.594;23.810;2023-04-16T12:50:26;94744.69;;;14.65;63.29
55466;BME280;41329;41.594;23.810;2023-04-16T12:52:55;94744.81;;;14.47;63.53
55466;BME280;41329;41.594;23.810;2023-04-16T12:55:21;94738.03;;;14.48;63.76
55466;BME280;41329;41.594;23.810;2023-04-16T12:57:47;94715.31;;;14.57;63.33
55466;BME280;41329;41.594;23.810;2023-04-16T13:00:13;94723.47;;;14.78;63.23
55466;BME280;41329;41.594;23.810;2023-04-16T13:02:40;94728.88;;;14.92;64.52
55466;BME280;41329;41.594;23.810;2023-04-16T13:05:06;94727.19;;;15.01;64.33